Time;durP1;ratioP1;P1;durP2;ratioP2;P2;SDS_P1;SDS_P2;PMS_P1;PMS_P2;Temp;Humidity;BMP_temperature;BMP_pressure;BME280_temperature;BME280_humidity;BME280_pressure;Samples;Min_cycle;Max_cycle;Signal;HPM_P1;HPM_P2
2024/01/13 00:01:38;;;;;;;93.10;38.47;;;-3.10;99.90;;;;;;4967292;28;20035;-71
2024/01/13 00:04:04;;;;;;;89.55;37.40;;;-3.10;99.90;;;;;;4968534;28;20031;-70
2024/01/13 00:06:29;;;;;;;91.20;35.83;;;-3.00;99.90;;;;;;4963226;28;20037;-70
2024/01/13 00:08:55;;;;;;;83.82;33.58;;;-3.00;99.90;;;;;;4966035;28;20026;-70
2024/01/13 00:11:21;;;;;;;92.60;39.15;;;-3.00;99.90;;;;;;4968467;28;20482;-70
2024/01/13 00:13:46;;;;;;;86.05;35.45;;;-3.10;99.90;;;;;;4969235;28;20077;-70
2024/01/13 00:16:12;;;;;;;86.53;37.60;;;-3.00;99.90;;;;;;4965380;28;20066;-71
2024/01/13 00:18:37;;;;;;;88.00;37.08;;;-3.00;99.90;;;;;;4970471;28;20031;-70
2024/01/13 00:21:03;;;;;;;88.45;33.65;;;-3.00;99.90;;;;;;4969476;28;20280;-69
2024/01/13 00:23:28;;;;;;;76.53;34.72;;;-3.10;99.90;;;;;;4959583;28;20150;-70
2024/01/13 00:25:54;;;;;;;83.80;36.03;;;-3.10;99.90;;;;;;4967126;28;20035;-70
2024/01/13 00:28:20;;;;;;;83.68;35.35;;;-3.10;99.90;;;;;;4967758;28;20102;-71
2024/01/13 00:30:45;;;;;;;77.20;34.25;;;-3.10;99.90;;;;;;4966006;28;20037;-71
2024/01/13 00:33:11;;;;;;;83.00;35.20;;;-3.10;99.90;;;;;;4972891;28;20029;-71
2024/01/13 00:35:36;;;;;;;80.00;33.35;;;-3.10;99.90;;;;;;4973340;28;20084;-72
2024/01/13 00:38:02;;;;;;;71.35;34.35;;;-3.20;99.90;;;;;;4974780;28;20124;-72
2024/01/13 00:40:27;;;;;;;68.93;30.35;;;-3.20;99.90;;;;;;4971334;28;20034;-71
2024/01/13 00:42:53;;;;;;;73.43;34.55;;;-3.20;99.90;;;;;;4970848;28;20046;-71
2024/01/13 00:45:18;;;;;;;78.38;33.85;;;-3.20;99.90;;;;;;4972450;28;20019;-71
2024/01/13 00:47:44;;;;;;;79.25;33.15;;;-3.20;99.90;;;;;;4969780;28;20030;-71
2024/01/13 00:50:10;;;;;;;71.00;32.30;;;-3.30;99.90;;;;;;4972471;28;20221;-70
2024/01/13 00:52:35;;;;;;;70.97;31.02;;;-3.30;99.90;;;;;;4968185;28;20023;-70
2024/01/13 00:55:01;;;;;;;75.32;32.22;;;-3.30;99.90;;;;;;4971012;28;20046;-70
2024/01/13 00:57:26;;;;;;;68.22;32.47;;;-3.30;99.90;;;;;;4966966;28;20031;-70
2024/01/13 00:59:52;;;;;;;75.22;32.45;;;-3.30;99.90;;;;;;4971094;28;20025;-70
2024/01/13 01:02:18;;;;;;;74.03;31.90;;;-3.30;99.90;;;;;;4968740;28;20603;-70
2024/01/13 01:04:43;;;;;;;77.95;32.47;;;-3.30;99.90;;;;;;4969795;28;20030;-70
2024/01/13 01:07:09;;;;;;;70.55;31.80;;;-3.30;99.90;;;;;;4969847;28;20027;-70
2024/01/13 01:09:34;;;;;;;72.95;32.42;;;-3.40;99.90;;;;;;4970981;28;20031;-70
2024/01/13 01:12:00;;;;;;;71.55;33.88;;;-3.40;99.90;;;;;;4969722;28;20105;-70
2024/01/13 01:14:25;;;;;;;68.72;31.55;;;-3.40;99.90;;;;;;4968131;28;20086;-70
2024/01/13 01:16:51;;;;;;;72.60;33.00;;;-3.40;99.90;;;;;;4961254;28;20031;-70
2024/01/13 01:19:17;;;;;;;70.00;31.58;;;-3.50;99.90;;;;;;4967821;28;20035;-70
2024/01/13 01:21:42;;;;;;;69.43;30.77;;;-3.50;99.90;;;;;;4969759;28;20035;-71
2024/01/13 01:24:08;;;;;;;71.95;33.38;;;-3.50;99.90;;;;;;4968030;28;20042;-71
2024/01/13 01:26:34;;;;;;;73.78;31.80;;;-3.40;99.90;;;;;;4967779;28;20027;-70
2024/01/13 01:28:59;;;;;;;71.68;32.30;;;-3.50;99.90;;;;;;4967237;28;20114;-71
2024/01/13 01:31:25;;;;;;;72.43;32.35;;;-3.50;99.90;;;;;;4968859;28;20074;-70
2024/01/13 01:33:50;;;;;;;70.80;32.13;;;-3.50;99.90;;;;;;4969475;28;20023;-70
2024/01/13 01:36:16;;;;;;;70.65;32.58;;;-3.50;99.90;;;;;;4968633;28;20518;-70
2024/01/13 01:38:41;;;;;;;71.32;31.65;;;-3.50;99.90;;;;;;4969644;28;20034;-70
2024/01/13 01:41:07;;;;;;;70.30;32.03;;;-3.50;99.90;;;;;;4968143;28;20062;-70
2024/01/13 01:43:33;;;;;;;71.43;32.40;;;-3.50;99.90;;;;;;4966767;28;20039;-70
2024/01/13 01:46:00;;;;;;;66.53;31.38;;;-3.50;99.90;;;;;;4966360;28;20041;-70
2024/01/13 01:48:37;;;;;;;73.07;32.95;;;-3.50;99.90;;;;;;4965534;28;20073;-70
2024/01/13 01:51:04;;;;;;;74.43;33.10;;;-3.50;99.90;;;;;;4968057;28;20039;-70
2024/01/13 01:53:31;;;;;;;68.10;29.90;;;-3.60;99.90;;;;;;4967103;28;20113;-70
2024/01/13 01:55:59;;;;;;;71.50;32.28;;;-3.60;99.90;;;;;;4970194;28;20034;-70
2024/01/13 01:58:25;;;;;;;68.60;31.02;;;-3.60;99.90;;;;;;4967822;28;20066;-70
2024/01/13 02:00:51;;;;;;;72.35;32.28;;;-3.60;99.90;;;;;;4968112;28;20441;-70
2024/01/13 02:03:18;;;;;;;76.18;31.88;;;-3.60;99.90;;;;;;4963276;28;20647;-70
2024/01/13 02:05:43;;;;;;;73.93;31.15;;;-3.60;99.90;;;;;;4966172;28;20081;-70
2024/01/13 02:08:10;;;;;;;69.68;31.73;;;-3.60;99.90;;;;;;4968770;28;20521;-70
2024/01/13 02:10:35;;;;;;;63.05;29.88;;;-3.60;99.90;;;;;;4967158;28;20090;-70
2024/01/13 02:13:01;;;;;;;67.18;30.95;;;-3.70;99.90;;;;;;4965162;28;20801;-70
2024/01/13 02:15:27;;;;;;;67.60;31.35;;;-3.70;99.90;;;;;;4967419;28;20035;-70
2024/01/13 02:17:52;;;;;;;70.38;31.10;;;-3.70;99.90;;;;;;4969220;28;20030;-71
2024/01/13 02:20:18;;;;;;;64.60;29.98;;;-3.70;99.90;;;;;;4966071;28;20059;-71
2024/01/13 02:22:43;;;;;;;75.55;31.35;;;-3.80;99.90;;;;;;4965749;28;20037;-71
2024/01/13 02:25:10;;;;;;;66.38;30.25;;;-3.80;99.90;;;;;;4965727;28;20030;-71
2024/01/13 02:27:35;;;;;;;72.20;32.05;;;-3.80;99.90;;;;;;4967694;28;20031;-71
2024/01/13 02:30:01;;;;;;;67.18;31.05;;;-3.80;99.90;;;;;;4965178;28;20033;-70
2024/01/13 02:32:27;;;;;;;61.92;29.70;;;-3.80;99.90;;;;;;4967878;28;20023;-70
2024/01/13 02:34:52;;;;;;;66.72;29.13;;;-3.80;99.90;;;;;;4966889;28;20023;-71
2024/01/13 02:37:18;;;;;;;73.63;31.58;;;-3.80;99.90;;;;;;4966641;28;20062;-70
2024/01/13 02:39:45;;;;;;;71.90;31.55;;;-3.80;99.90;;;;;;4969820;28;20093;-70
2024/01/13 02:42:10;;;;;;;75.90;32.83;;;-3.80;99.90;;;;;;4968791;28;20046;-70
2024/01/13 02:44:36;;;;;;;69.75;31.00;;;-3.80;99.90;;;;;;4967034;28;20062;-70
2024/01/13 02:47:01;;;;;;;67.18;30.17;;;-3.80;99.90;;;;;;4968454;28;20035;-70
2024/01/13 02:49:27;;;;;;;73.50;31.05;;;-3.90;99.90;;;;;;4968566;28;20027;-70
2024/01/13 02:51:52;;;;;;;72.90;31.40;;;-3.90;99.90;;;;;;4966863;28;20491;-70
2024/01/13 02:54:18;;;;;;;66.93;31.02;;;-3.90;99.90;;;;;;4965957;28;20379;-70
2024/01/13 02:56:43;;;;;;;65.15;29.75;;;-3.90;99.90;;;;;;4969801;28;20045;-70
2024/01/13 02:59:09;;;;;;;71.90;31.88;;;-3.80;99.90;;;;;;4968725;28;20022;-69
2024/01/13 03:01:35;;;;;;;63.83;30.27;;;-3.80;99.90;;;;;;4967729;28;20054;-70
2024/01/13 03:04:01;;;;;;;66.47;29.15;;;-3.80;99.90;;;;;;4969590;28;20042;-70
2024/01/13 03:06:26;;;;;;;70.68;30.27;;;-3.80;99.90;;;;;;4965775;28;20049;-70
2024/01/13 03:08:55;;;;;;;67.50;30.05;;;-3.80;99.90;;;;;;4969885;28;20022;-70
2024/01/13 03:11:21;;;;;;;72.93;30.08;;;-3.80;99.90;;;;;;4969123;28;20023;-69
2024/01/13 03:13:46;;;;;;;69.65;30.23;;;-3.80;99.90;;;;;;4966055;28;20027;-69
2024/01/13 03:16:13;;;;;;;70.30;30.50;;;-3.80;99.90;;;;;;4965372;28;20398;-70
2024/01/13 03:18:38;;;;;;;71.10;30.60;;;-3.90;99.90;;;;;;4964706;28;20037;-70
2024/01/13 03:21:04;;;;;;;64.47;26.50;;;-3.90;99.90;;;;;;4967815;28;20035;-71
2024/01/13 03:23:30;;;;;;;69.55;28.45;;;-3.90;99.90;;;;;;4967967;28;20543;-72
2024/01/13 03:25:56;;;;;;;71.70;30.35;;;-3.90;99.90;;;;;;4965471;28;20073;-70
2024/01/13 03:28:22;;;;;;;66.25;27.48;;;-3.80;99.90;;;;;;4967006;28;20051;-69
2024/01/13 03:30:48;;;;;;;65.18;29.75;;;-3.90;99.90;;;;;;4967088;28;20172;-72
2024/01/13 03:33:15;;;;;;;67.35;31.10;;;-3.90;99.90;;;;;;4968924;28;20502;-70
2024/01/13 03:35:40;;;;;;;68.65;28.65;;;-3.90;99.90;;;;;;4964678;28;20121;-70
2024/01/13 03:38:06;;;;;;;63.47;30.77;;;-3.90;99.90;;;;;;4964995;28;20647;-70
2024/01/13 03:40:31;;;;;;;70.68;30.45;;;-3.90;99.90;;;;;;4968501;28;20501;-70
2024/01/13 03:42:57;;;;;;;62.85;28.88;;;-3.90;99.90;;;;;;4969549;28;20073;-70
2024/01/13 03:45:23;;;;;;;69.70;29.20;;;-3.90;99.90;;;;;;4968228;28;20034;-70
2024/01/13 03:47:48;;;;;;;69.00;28.65;;;-4.00;99.90;;;;;;4966629;28;20027;-69
2024/01/13 03:50:14;;;;;;;67.32;29.42;;;-4.00;99.90;;;;;;4968962;28;20054;-69
2024/01/13 03:52:40;;;;;;;74.75;31.08;;;-4.00;99.90;;;;;;4969389;28;20522;-71
2024/01/13 03:55:07;;;;;;;66.82;30.42;;;-4.00;99.90;;;;;;4964862;28;20102;-69
2024/01/13 03:57:33;;;;;;;73.47;30.50;;;-4.00;99.90;;;;;;4966456;28;20023;-70
2024/01/13 03:59:58;;;;;;;67.38;28.92;;;-4.10;99.90;;;;;;4967420;28;20030;-70
2024/01/13 04:02:25;;;;;;;64.78;29.92;;;-4.00;99.90;;;;;;4968007;28;20035;-70
2024/01/13 04:04:51;;;;;;;67.95;28.40;;;-4.00;99.90;;;;;;4964916;28;20038;-69
2024/01/13 04:07:16;;;;;;;65.32;28.75;;;-4.10;99.90;;;;;;4972824;28;20026;-70
2024/01/13 04:09:42;;;;;;;69.63;30.27;;;-4.10;99.90;;;;;;4970657;28;20035;-70
2024/01/13 04:12:08;;;;;;;65.30;29.10;;;-4.10;99.90;;;;;;4969912;28;20031;-70
2024/01/13 04:14:33;;;;;;;64.97;28.83;;;-4.10;99.90;;;;;;4971784;28;20033;-70
2024/01/13 04:17:00;;;;;;;69.43;29.05;;;-4.10;99.90;;;;;;4971302;28;20050;-70
2024/01/13 04:19:25;;;;;;;62.72;28.20;;;-4.10;99.90;;;;;;4971315;28;20042;-71
2024/01/13 04:21:51;;;;;;;71.30;27.55;;;-4.10;99.90;;;;;;4970960;28;20386;-70
2024/01/13 04:24:17;;;;;;;66.57;27.70;;;-4.10;99.90;;;;;;4972074;28;20033;-71
2024/01/13 04:26:43;;;;;;;66.65;28.17;;;-4.10;99.90;;;;;;4970657;28;20490;-71
2024/01/13 04:29:09;;;;;;;67.20;27.08;;;-4.10;99.90;;;;;;4967974;28;20109;-71
2024/01/13 04:31:35;;;;;;;62.35;27.55;;;-4.10;99.90;;;;;;4968911;28;20031;-71
2024/01/13 04:34:00;;;;;;;71.60;27.60;;;-4.20;99.90;;;;;;4968276;28;20027;-71
2024/01/13 04:36:26;;;;;;;74.75;29.17;;;-4.10;99.90;;;;;;4970842;28;20041;-71
2024/01/13 04:38:52;;;;;;;65.43;28.15;;;-4.10;99.90;;;;;;4968822;28;20059;-71
2024/01/13 04:41:17;;;;;;;64.00;26.60;;;-4.10;99.90;;;;;;4970781;28;20042;-71
2024/01/13 04:43:43;;;;;;;64.90;27.73;;;-4.10;99.90;;;;;;4970741;28;20141;-70
2024/01/13 04:46:10;;;;;;;67.00;28.60;;;-4.10;99.90;;;;;;4967087;28;20038;-71
2024/01/13 04:48:36;;;;;;;65.88;27.23;;;-4.10;99.90;;;;;;4969263;28;20034;-71
2024/01/13 04:51:02;;;;;;;68.15;29.23;;;-4.10;99.90;;;;;;4966439;28;20031;-71
2024/01/13 04:53:28;;;;;;;75.55;28.58;;;-4.10;99.90;;;;;;4972259;28;20034;-71
2024/01/13 04:55:54;;;;;;;68.57;27.90;;;-4.10;99.90;;;;;;4968137;28;20038;-71
2024/01/13 04:58:20;;;;;;;68.22;28.33;;;-4.10;99.90;;;;;;4971477;28;20062;-70
2024/01/13 05:00:45;;;;;;;73.93;27.92;;;-4.10;99.90;;;;;;4966967;28;20027;-71
2024/01/13 05:03:11;;;;;;;72.72;29.45;;;-4.00;99.90;;;;;;4971851;28;20106;-70
2024/01/13 05:05:36;;;;;;;67.93;28.45;;;-4.10;99.90;;;;;;4969352;28;20054;-71
2024/01/13 05:08:02;;;;;;;71.78;28.75;;;-4.00;99.90;;;;;;4971081;28;20516;-70
2024/01/13 05:10:28;;;;;;;63.53;27.60;;;-4.10;99.90;;;;;;4969618;28;20119;-70
2024/01/13 05:12:53;;;;;;;66.07;29.30;;;-4.10;99.90;;;;;;4971071;28;20120;-71
2024/01/13 05:15:19;;;;;;;60.13;26.58;;;-4.10;99.90;;;;;;4969771;28;20035;-71
2024/01/13 05:17:44;;;;;;;65.68;27.33;;;-4.10;99.90;;;;;;4964525;28;20039;-71
2024/01/13 05:20:11;;;;;;;64.82;28.08;;;-4.10;99.90;;;;;;4969481;28;20030;-71
2024/01/13 05:22:36;;;;;;;66.57;27.00;;;-4.20;99.90;;;;;;4967544;28;20035;-71
2024/01/13 05:25:02;;;;;;;68.03;29.50;;;-4.10;99.90;;;;;;4966645;28;20324;-71
2024/01/13 05:27:27;;;;;;;63.78;25.33;;;-4.20;99.90;;;;;;4971458;28;20049;-71
2024/01/13 05:29:53;;;;;;;71.35;28.05;;;-4.20;99.90;;;;;;4969818;28;20031;-70
2024/01/13 05:32:18;;;;;;;69.43;28.70;;;-4.20;99.90;;;;;;4969081;28;20062;-71
2024/01/13 05:34:44;;;;;;;75.55;28.45;;;-4.20;99.90;;;;;;4968495;28;20035;-71
2024/01/13 05:37:10;;;;;;;68.78;27.92;;;-4.20;99.90;;;;;;4967106;28;20026;-71
2024/01/13 05:39:35;;;;;;;63.92;26.98;;;-4.20;99.90;;;;;;4968332;28;20066;-71
2024/01/13 05:42:01;;;;;;;66.75;26.92;;;-4.30;99.90;;;;;;4971042;28;20114;-71
2024/01/13 05:44:27;;;;;;;69.22;29.35;;;-4.30;99.90;;;;;;4964621;28;20035;-71
2024/01/13 05:46:52;;;;;;;65.97;26.83;;;-4.30;99.90;;;;;;4966691;28;20026;-71
2024/01/13 05:49:18;;;;;;;67.50;27.63;;;-4.30;99.90;;;;;;4967466;28;20496;-71
2024/01/13 05:51:44;;;;;;;62.70;26.55;;;-4.30;99.90;;;;;;4963150;28;20133;-71
2024/01/13 05:54:12;;;;;;;61.05;25.23;;;-4.30;99.90;;;;;;4968624;28;20038;-70
2024/01/13 05:56:38;;;;;;;64.28;27.33;;;-4.30;99.90;;;;;;4966241;28;20498;-71
2024/01/13 05:59:03;;;;;;;60.85;26.45;;;-4.30;99.90;;;;;;4969016;28;20030;-71
2024/01/13 06:01:30;;;;;;;69.45;27.85;;;-4.30;99.90;;;;;;4964508;28;20027;-71
2024/01/13 06:03:55;;;;;;;63.25;25.58;;;-4.30;99.90;;;;;;4969204;28;20022;-71
2024/01/13 06:06:21;;;;;;;59.22;27.05;;;-4.30;99.90;;;;;;4967054;28;20486;-71
2024/01/13 06:08:46;;;;;;;68.20;28.83;;;-4.30;99.90;;;;;;4969805;28;20052;-70
2024/01/13 06:11:12;;;;;;;64.88;27.60;;;-4.30;99.90;;;;;;4967504;28;20457;-71
2024/01/13 06:13:39;;;;;;;59.70;26.92;;;-4.30;99.90;;;;;;4966115;28;20098;-72
2024/01/13 06:16:05;;;;;;;60.67;25.98;;;-4.30;99.90;;;;;;4965961;28;20038;-70
2024/01/13 06:18:30;;;;;;;66.05;26.60;;;-4.30;99.90;;;;;;4963927;28;20027;-72
2024/01/13 06:20:56;;;;;;;64.25;26.48;;;-4.30;99.90;;;;;;4966007;28;20120;-71
2024/01/13 06:23:21;;;;;;;82.35;29.15;;;-4.40;99.90;;;;;;4965388;28;20047;-71
2024/01/13 06:25:48;;;;;;;67.90;27.17;;;-4.40;99.90;;;;;;4947457;28;20168;-71
2024/01/13 06:28:14;;;;;;;64.82;27.27;;;-4.40;99.90;;;;;;4975159;28;20473;-70
2024/01/13 06:30:39;;;;;;;67.47;26.95;;;-4.30;99.90;;;;;;4969535;28;20089;-70
2024/01/13 06:33:05;;;;;;;71.68;27.25;;;-4.30;99.90;;;;;;4965246;28;20110;-70
2024/01/13 06:35:30;;;;;;;65.97;28.23;;;-4.30;99.90;;;;;;4967457;28;20417;-71
2024/01/13 06:37:56;;;;;;;67.15;28.23;;;-4.30;99.90;;;;;;4970161;28;20023;-71
2024/01/13 06:40:22;;;;;;;61.97;26.85;;;-4.30;99.90;;;;;;4968463;28;20018;-72
2024/01/13 06:42:47;;;;;;;58.88;26.02;;;-4.30;99.90;;;;;;4972067;28;20025;-72
2024/01/13 06:45:13;;;;;;;66.75;27.73;;;-4.30;99.90;;;;;;4966262;28;20530;-71
2024/01/13 06:47:39;;;;;;;73.65;26.77;;;-4.30;99.90;;;;;;4969126;28;20066;-72
2024/01/13 06:50:05;;;;;;;68.47;28.08;;;-4.30;99.90;;;;;;4968768;28;20039;-72
2024/01/13 06:52:30;;;;;;;69.68;27.25;;;-4.30;99.90;;;;;;4964940;28;20023;-72
2024/01/13 06:54:56;;;;;;;70.53;26.92;;;-4.30;99.90;;;;;;4966887;28;20058;-71
2024/01/13 06:57:22;;;;;;;71.50;28.67;;;-4.30;99.90;;;;;;4970204;28;20033;-71
2024/01/13 06:59:48;;;;;;;68.55;28.48;;;-4.40;99.90;;;;;;4971047;28;20114;-72
2024/01/13 07:02:14;;;;;;;67.72;26.90;;;-4.50;99.90;;;;;;4962822;28;20455;-70
2024/01/13 07:04:40;;;;;;;72.07;27.23;;;-4.50;99.90;;;;;;4960757;28;20027;-71
2024/01/13 07:07:06;;;;;;;69.13;27.50;;;-4.50;99.90;;;;;;4969259;28;20043;-72
2024/01/13 07:09:32;;;;;;;67.25;26.55;;;-4.50;99.90;;;;;;4968525;28;20111;-71
2024/01/13 07:11:58;;;;;;;68.70;28.27;;;-4.50;99.90;;;;;;4971191;28;20062;-73
2024/01/13 07:14:23;;;;;;;70.15;26.80;;;-4.50;99.90;;;;;;4971100;28;20105;-73
2024/01/13 07:16:49;;;;;;;68.20;27.67;;;-4.50;99.90;;;;;;4963690;28;20097;-72
2024/01/13 07:19:15;;;;;;;71.40;28.30;;;-4.50;99.90;;;;;;4962750;28;20031;-71
2024/01/13 07:21:42;;;;;;;67.55;27.30;;;-4.50;99.90;;;;;;4968976;28;20031;-72
2024/01/13 07:24:09;;;;;;;65.07;25.38;;;-4.50;99.90;;;;;;4970404;28;20023;-73
2024/01/13 07:26:38;;;;;;;66.57;27.73;;;-4.50;99.90;;;;;;4969368;28;20029;-74
2024/01/13 07:29:04;;;;;;;75.15;29.40;;;-4.50;99.90;;;;;;4968624;28;21429;-73
2024/01/13 07:31:29;;;;;;;67.03;27.50;;;-4.50;99.90;;;;;;4969588;28;20026;-73
2024/01/13 07:33:55;;;;;;;67.38;30.00;;;-4.50;99.90;;;;;;4971067;28;20046;-74
2024/01/13 07:36:21;;;;;;;72.50;28.58;;;-4.50;99.90;;;;;;4971029;28;20113;-73
2024/01/13 07:38:46;;;;;;;66.90;27.42;;;-4.50;99.90;;;;;;4967905;28;20548;-73
2024/01/13 07:41:12;;;;;;;72.43;26.40;;;-4.50;99.90;;;;;;4958837;28;20033;-75
2024/01/13 07:43:38;;;;;;;67.35;27.35;;;-4.50;99.90;;;;;;4977862;28;20035;-73
2024/01/13 07:46:03;;;;;;;63.25;25.58;;;-4.50;99.90;;;;;;4965998;28;20028;-74
2024/01/13 07:48:29;;;;;;;67.18;27.38;;;-4.50;99.90;;;;;;4962999;28;20022;-72
2024/01/13 07:50:55;;;;;;;68.93;25.60;;;-4.50;99.90;;;;;;4972005;28;20023;-72
2024/01/13 07:53:20;;;;;;;67.05;28.00;;;-4.50;99.90;;;;;;4968596;28;20074;-72
2024/01/13 07:55:46;;;;;;;68.00;26.80;;;-4.50;99.90;;;;;;4970107;28;20046;-70
2024/01/13 07:58:11;;;;;;;68.20;25.08;;;-4.50;99.90;;;;;;4970795;28;20029;-70
2024/01/13 08:00:37;;;;;;;66.95;24.40;;;-4.60;99.90;;;;;;4968126;28;20379;-72
2024/01/13 08:03:04;;;;;;;76.13;26.02;;;-4.50;99.90;;;;;;4967001;28;20031;-70
2024/01/13 08:05:31;;;;;;;74.22;25.65;;;-4.60;99.90;;;;;;4969535;28;20019;-71
2024/01/13 08:07:57;;;;;;;76.22;26.88;;;-4.50;99.90;;;;;;4968132;28;20050;-70
2024/01/13 08:10:23;;;;;;;71.32;28.02;;;-4.60;99.90;;;;;;4965379;28;21007;-70
2024/01/13 08:12:48;;;;;;;73.80;25.65;;;-4.60;99.90;;;;;;4971973;28;20047;-72
2024/01/13 08:15:14;;;;;;;67.18;26.63;;;-4.60;99.90;;;;;;4967743;28;20394;-73
2024/01/13 08:17:40;;;;;;;69.05;28.23;;;-4.60;99.90;;;;;;4965207;28;20101;-72
2024/01/13 08:20:09;;;;;;;65.93;25.88;;;-4.60;99.90;;;;;;4968125;28;20062;-72
2024/01/13 08:22:34;;;;;;;68.80;26.00;;;-4.60;99.90;;;;;;4968605;28;20033;-71
2024/01/13 08:25:00;;;;;;;74.43;27.75;;;-4.50;99.90;;;;;;4968071;28;20031;-70
2024/01/13 08:27:26;;;;;;;67.45;27.67;;;-4.60;99.90;;;;;;4970044;28;20061;-70
2024/01/13 08:29:52;;;;;;;62.00;25.90;;;-4.60;99.90;;;;;;4970117;28;20023;-70
2024/01/13 08:32:17;;;;;;;57.92;23.88;;;-4.50;99.90;;;;;;4969145;28;20111;-70
2024/01/13 08:34:43;;;;;;;61.55;25.33;;;-4.50;99.90;;;;;;4965715;28;20039;-70
2024/01/13 08:37:09;;;;;;;61.90;24.20;;;-4.50;99.90;;;;;;4963913;28;20042;-71
2024/01/13 08:39:35;;;;;;;64.22;24.45;;;-4.50;99.90;;;;;;4970450;28;20035;-70
2024/01/13 08:42:01;;;;;;;62.83;25.75;;;-4.50;99.90;;;;;;4967112;28;20439;-71
2024/01/13 08:44:27;;;;;;;60.35;25.10;;;-4.50;99.90;;;;;;4970570;28;20058;-71
2024/01/13 08:46:52;;;;;;;59.72;24.83;;;-4.50;99.90;;;;;;4967652;28;20521;-71
2024/01/13 08:49:18;;;;;;;60.78;23.83;;;-4.50;99.90;;;;;;4967775;28;20398;-70
2024/01/13 08:51:44;;;;;;;54.53;23.10;;;-4.50;99.90;;;;;;4971387;28;20440;-71
2024/01/13 08:54:09;;;;;;;56.83;24.23;;;-4.40;99.90;;;;;;4971834;28;20027;-70
2024/01/13 08:56:36;;;;;;;57.15;23.25;;;-4.40;99.90;;;;;;4968384;28;20039;-70
2024/01/13 08:59:02;;;;;;;57.78;23.58;;;-4.40;99.90;;;;;;4971814;28;20054;-71
2024/01/13 09:01:28;;;;;;;54.03;24.10;;;-4.30;99.90;;;;;;4972204;28;20054;-71
2024/01/13 09:03:53;;;;;;;57.20;22.80;;;-4.30;99.90;;;;;;4968751;28;20066;-71
2024/01/13 09:06:19;;;;;;;55.97;23.08;;;-4.30;99.90;;;;;;4971875;28;20033;-71
2024/01/13 09:08:44;;;;;;;58.83;22.75;;;-4.20;99.90;;;;;;4971075;28;20533;-71
2024/01/13 09:11:10;;;;;;;60.40;23.88;;;-4.20;99.90;;;;;;4971694;28;20030;-72
2024/01/13 09:13:36;;;;;;;50.15;22.10;;;-4.10;99.90;;;;;;4974234;28;20029;-71
2024/01/13 09:16:02;;;;;;;59.33;24.30;;;-4.10;99.90;;;;;;4972378;28;20027;-71
2024/01/13 09:18:28;;;;;;;59.72;25.20;;;-4.10;99.90;;;;;;4968832;28;20049;-72
2024/01/13 09:20:53;;;;;;;64.18;24.42;;;-4.00;99.90;;;;;;4970960;28;20030;-72
2024/01/13 09:23:19;;;;;;;57.08;25.55;;;-4.00;99.90;;;;;;4973422;28;20038;-72
2024/01/13 09:25:45;;;;;;;58.85;23.33;;;-4.00;99.90;;;;;;4969366;28;20053;-71
2024/01/13 09:28:10;;;;;;;55.72;23.92;;;-4.00;99.90;;;;;;4971473;28;20077;-71
2024/01/13 09:30:36;;;;;;;56.80;23.55;;;-4.00;99.90;;;;;;4971589;28;20065;-71
2024/01/13 09:33:04;;;;;;;63.10;24.55;;;-4.00;99.90;;;;;;4971064;28;20210;-71
2024/01/13 09:35:31;;;;;;;60.30;25.90;;;-3.90;99.90;;;;;;4971181;28;20133;-72
2024/01/13 09:37:57;;;;;;;55.17;23.42;;;-3.90;99.90;;;;;;4970521;28;20432;-72
2024/01/13 09:40:23;;;;;;;59.42;23.55;;;-3.90;99.90;;;;;;4970432;28;20026;-70
2024/01/13 09:42:59;;;;;;;56.83;23.75;;;-3.90;99.90;;;;;;4971442;28;20031;-70
2024/01/13 09:45:25;;;;;;;62.55;23.63;;;-3.80;99.90;;;;;;4972877;28;20045;-72
2024/01/13 09:47:54;;;;;;;64.93;25.95;;;-3.80;99.90;;;;;;4971539;28;20093;-70
2024/01/13 09:50:19;;;;;;;60.03;23.60;;;-3.80;99.90;;;;;;4969993;28;20194;-70
2024/01/13 09:52:46;;;;;;;66.82;24.08;;;-3.80;99.90;;;;;;4967895;28;20089;-70
2024/01/13 09:55:15;;;;;;;61.70;23.83;;;-3.80;99.90;;;;;;4985774;28;20033;-70
2024/01/13 09:57:41;;;;;;;63.65;25.98;;;-3.70;99.90;;;;;;4970309;28;20047;-70
2024/01/13 10:00:08;;;;;;;62.80;23.98;;;-3.70;99.90;;;;;;4968393;28;20041;-70
2024/01/13 10:02:34;;;;;;;62.92;24.30;;;-3.60;99.90;;;;;;4969725;28;20087;-71
2024/01/13 10:05:00;;;;;;;67.50;26.20;;;-3.60;99.90;;;;;;4970792;28;20489;-71
2024/01/13 10:07:28;;;;;;;60.67;23.77;;;-3.60;99.90;;;;;;4968973;28;20073;-70
2024/01/13 10:09:54;;;;;;;65.22;25.48;;;-3.50;99.90;;;;;;4971608;28;20049;-70
2024/01/13 10:12:20;;;;;;;62.13;24.35;;;-3.50;99.90;;;;;;4969463;28;20006;-70
2024/01/13 10:14:46;;;;;;;68.38;30.20;;;-3.50;99.90;;;;;;4968593;28;20036;-70
2024/01/13 10:17:12;;;;;;;67.53;26.95;;;-3.50;99.90;;;;;;4968753;28;20031;-70
2024/01/13 10:19:38;;;;;;;62.05;25.95;;;-3.40;99.90;;;;;;4969002;28;20442;-70
2024/01/13 10:22:05;;;;;;;60.03;24.15;;;-3.40;99.90;;;;;;4966829;28;20031;-70
2024/01/13 10:24:31;;;;;;;68.38;26.08;;;-3.30;99.90;;;;;;4969245;28;20383;-70
2024/01/13 10:26:57;;;;;;;64.65;25.45;;;-3.40;99.90;;;;;;4971407;28;20035;-70
2024/01/13 10:29:23;;;;;;;82.90;29.33;;;-3.30;99.90;;;;;;4964713;28;20475;-71
2024/01/13 10:31:50;;;;;;;75.97;27.05;;;-3.30;99.90;;;;;;4965519;28;20019;-71
2024/01/13 10:34:19;;;;;;;68.60;25.55;;;-3.30;99.90;;;;;;4969736;28;20496;-70
2024/01/13 10:36:44;;;;;;;76.78;29.35;;;-3.20;99.90;;;;;;4968306;28;20023;-70
2024/01/13 10:39:10;;;;;;;70.65;29.08;;;-3.20;99.90;;;;;;4970755;28;20027;-70
2024/01/13 10:41:41;;;;;;;74.68;28.60;;;-3.20;99.90;;;;;;4969936;28;20114;-71
2024/01/13 10:44:09;;;;;;;75.60;27.98;;;-3.20;99.90;;;;;;4987479;28;20081;-71
2024/01/13 10:46:37;;;;;;;74.05;26.35;;;-3.20;99.90;;;;;;4969875;28;20064;-70
2024/01/13 10:49:09;;;;;;;77.18;30.60;;;-3.20;99.90;;;;;;4963778;28;20069;-71
2024/01/13 10:51:42;;;;;;;78.65;28.83;;;-3.10;99.90;;;;;;4969991;28;20445;-71
2024/01/13 10:54:09;;;;;;;75.18;27.55;;;-3.10;99.90;;;;;;4969777;28;20019;-71
2024/01/13 10:56:38;;;;;;;70.90;26.75;;;-3.10;99.90;;;;;;4967906;28;21188;-71
2024/01/13 10:59:04;;;;;;;70.28;26.25;;;-3.10;99.90;;;;;;4969450;28;20035;-70
2024/01/13 11:01:31;;;;;;;71.85;27.35;;;-3.10;99.90;;;;;;4968343;28;20035;-71
2024/01/13 11:03:58;;;;;;;72.05;25.48;;;-3.10;99.90;;;;;;4969695;28;20038;-70
2024/01/13 11:06:24;;;;;;;72.28;28.15;;;-3.10;99.90;;;;;;4972185;28;20023;-70
2024/01/13 11:08:51;;;;;;;73.10;27.20;;;-3.10;99.90;;;;;;4969668;28;20023;-70
2024/01/13 11:11:23;;;;;;;69.75;24.90;;;-3.20;99.90;;;;;;4970235;28;20034;-70
2024/01/13 11:14:03;;;;;;;73.38;29.00;;;-3.30;99.90;;;;;;4966752;28;20065;-70
2024/01/13 11:16:30;;;;;;;70.13;26.92;;;-3.30;99.90;;;;;;4966423;28;20034;-72
2024/01/13 11:18:58;;;;;;;62.38;26.30;;;-3.40;99.90;;;;;;4968454;28;20050;-72
2024/01/13 11:21:33;;;;;;;72.95;26.52;;;-3.30;99.90;;;;;;4968500;28;20023;-71
2024/01/13 11:24:07;;;;;;;67.05;26.17;;;-3.30;99.90;;;;;;4968164;28;20031;-72
2024/01/13 11:26:49;;;;;;;68.03;24.67;;;-3.30;99.90;;;;;;4967176;28;20027;-71
2024/01/13 11:29:19;;;;;;;65.65;26.77;;;-3.30;99.90;;;;;;4967198;28;20023;-70
2024/01/13 11:31:48;;;;;;;72.45;26.10;;;-3.20;99.90;;;;;;4967334;28;20027;-70
2024/01/13 11:34:16;;;;;;;68.97;25.60;;;-3.20;99.90;;;;;;4969124;28;20050;-70
2024/01/13 11:36:47;;;;;;;75.35;28.80;;;-3.20;99.90;;;;;;4971385;28;20552;-72
2024/01/13 11:39:13;;;;;;;75.55;33.25;;;-3.10;99.90;;;;;;4969645;28;20027;-72
2024/01/13 11:41:44;;;;;;;70.75;29.55;;;-3.10;99.90;;;;;;4967491;28;20537;-71
2024/01/13 11:44:10;;;;;;;66.35;28.67;;;-3.10;99.90;;;;;;4969348;28;20063;-71
2024/01/13 11:46:56;;;;;;;70.13;28.95;;;-3.00;99.90;;;;;;4971598;28;20513;-71
2024/01/13 11:49:31;;;;;;;74.88;28.83;;;-3.00;99.90;;;;;;4967577;28;20454;-71
2024/01/13 11:51:58;;;;;;;71.70;28.90;;;-3.10;99.90;;;;;;4967769;28;20486;-71
2024/01/13 11:54:28;;;;;;;72.05;25.33;;;-3.00;99.90;;;;;;4970510;28;20053;-71
2024/01/13 11:56:56;;;;;;;66.40;24.95;;;-3.00;99.90;;;;;;4966402;28;20023;-71
2024/01/13 11:59:22;;;;;;;77.47;30.42;;;-3.00;99.90;;;;;;4968545;28;20335;-71
2024/01/13 12:01:48;;;;;;;72.35;27.88;;;-3.00;99.90;;;;;;4965941;28;20091;-71
2024/01/13 12:04:16;;;;;;;75.53;26.85;;;-3.00;99.90;;;;;;4967531;28;20053;-71
2024/01/13 12:06:43;;;;;;;67.93;26.77;;;-2.90;99.90;;;;;;4967451;28;20463;-71
2024/01/13 12:09:11;;;;;;;69.78;24.88;;;-2.90;99.90;;;;;;4969268;28;20114;-71
2024/01/13 12:11:38;;;;;;;62.65;25.20;;;-2.90;99.90;;;;;;4964854;28;20101;-71
2024/01/13 12:14:04;;;;;;;60.50;25.52;;;-2.80;99.90;;;;;;4968957;28;20023;-71
2024/01/13 12:16:31;;;;;;;69.05;25.70;;;-2.80;99.90;;;;;;4969901;28;21000;-71
2024/01/13 12:18:56;;;;;;;68.13;26.17;;;-2.80;99.90;;;;;;4971489;28;20436;-71
2024/01/13 12:21:23;;;;;;;74.25;28.08;;;-2.80;99.90;;;;;;4967667;28;20421;-71
2024/01/13 12:23:49;;;;;;;72.95;26.30;;;-2.70;99.90;;;;;;4971122;28;20058;-72